Terminal Aerodrome Forecast
Issued by NWS

Home | Current Version | Previous Version | Text Only | Print | Product List | Glossary On
Versions: 1 2 3 4 5 6 7 8 9 10 11 12 13 14 15 16
000
FTUS43 KGRB 142055 AAA
TAFATW
TAF AMD
KATW 142055Z 1421/1518 07011G18KT P6SM -SHRA SCT006 OVC012
      TEMPO 1421/1422 BKN006
     FM142200 06011G18KT P6SM -SHRA OVC006
     FM150000 05011G18KT 2SM SHRA BR OVC004
     FM151000 34014G24KT 4SM -SHRA OVC007
     FM151200 33016G27KT P6SM -SHRA OVC014
     FM151600 33017G28KT P6SM -SHRA BKN040=

USA.gov is the U.S. government's official web portal to all federal, state and local government web resources and services.